Time;durP1;ratioP1;P1;durP2;ratioP2;P2;SDS_P1;SDS_P2;PMS_P1;PMS_P2;Temp;Humidity;BMP_temperature;BMP_pressure;BME280_temperature;BME280_humidity;BME280_pressure;Samples;Min_cycle;Max_cycle;Signal;HPM_P1;HPM_P2
2022/12/10 00:01:49;;;;;;;53.40;22.98;;;2.40;99.90;;;;;;4991550;28;20661;-78
2022/12/10 00:04:15;;;;;;;47.30;21.30;;;2.40;99.90;;;;;;4992955;28;20202;-78
2022/12/10 00:06:41;;;;;;;49.92;21.52;;;2.40;99.90;;;;;;4992815;28;20177;-78
2022/12/10 00:09:11;;;;;;;47.78;21.80;;;2.30;99.90;;;;;;4992971;28;20522;-79
2022/12/10 00:11:38;;;;;;;52.90;21.83;;;2.20;99.90;;;;;;4992864;28;20189;-78
2022/12/10 00:14:06;;;;;;;48.75;20.33;;;1.90;99.90;;;;;;4993048;28;20242;-78
2022/12/10 00:16:33;;;;;;;52.97;20.80;;;2.00;99.90;;;;;;4993013;28;20169;-84
2022/12/10 00:18:59;;;;;;;45.75;19.02;;;2.00;99.90;;;;;;4992841;28;20219;-79
2022/12/10 00:21:31;;;;;;;59.70;20.40;;;2.00;99.90;;;;;;4992808;28;20339;-78
2022/12/10 00:23:57;;;;;;;54.15;20.75;;;2.00;99.90;;;;;;4992952;28;20201;-84
2022/12/10 00:26:26;;;;;;;69.47;21.75;;;2.10;99.90;;;;;;4992682;28;20201;-80
2022/12/10 00:28:52;;;;;;;48.90;19.90;;;2.10;99.90;;;;;;4992863;28;20165;-78
2022/12/10 00:31:27;;;;;;;52.92;21.00;;;2.00;99.90;;;;;;4995255;28;20306;-79
2022/12/10 00:34:01;;;;;;;59.28;20.80;;;1.80;99.90;;;;;;4996757;28;20161;-81
2022/12/10 00:36:33;;;;;;;45.95;20.83;;;1.50;99.90;;;;;;4996452;28;20184;-78
2022/12/10 00:38:59;;;;;;;52.20;21.27;;;1.90;99.90;;;;;;4995248;28;20381;-78
2022/12/10 00:41:24;;;;;;;56.60;23.00;;;2.10;99.90;;;;;;4996142;28;21191;-86
2022/12/10 00:43:50;;;;;;;59.38;21.13;;;2.00;99.90;;;;;;4996187;28;20165;-78
2022/12/10 00:46:18;;;;;;;56.30;23.67;;;1.90;99.90;;;;;;4995182;28;20217;-78
2022/12/10 00:48:44;;;;;;;57.97;22.92;;;1.80;99.90;;;;;;4996465;28;20220;-78
2022/12/10 00:51:12;;;;;;;60.58;23.50;;;1.90;99.90;;;;;;4996663;28;20205;-78
2022/12/10 00:53:40;;;;;;;50.53;23.63;;;2.00;99.90;;;;;;4995401;28;20560;-78
2022/12/10 00:56:07;;;;;;;57.05;23.42;;;2.20;99.90;;;;;;4996507;28;20190;-81
2022/12/10 00:58:34;;;;;;;55.97;22.77;;;2.30;99.90;;;;;;4996048;28;20605;-80
2022/12/10 01:01:09;;;;;;;54.22;23.23;;;2.40;99.90;;;;;;4994359;28;20197;-78
2022/12/10 01:03:35;;;;;;;51.03;23.27;;;2.30;99.90;;;;;;4996125;28;20177;-78
2022/12/10 01:06:11;;;;;;;57.13;23.45;;;2.30;99.90;;;;;;4995806;28;20212;-78
2022/12/10 01:08:38;;;;;;;60.40;23.98;;;2.30;99.90;;;;;;4994362;28;20172;-79
2022/12/10 01:11:04;;;;;;;54.88;23.48;;;2.40;99.90;;;;;;4994436;28;20197;-79
2022/12/10 01:13:30;;;;;;;62.13;24.67;;;2.30;99.90;;;;;;4995861;28;20177;-78
2022/12/10 01:15:55;;;;;;;51.10;25.23;;;2.30;99.90;;;;;;4994329;28;20579;-79
2022/12/10 01:18:21;;;;;;;59.00;24.52;;;2.30;99.90;;;;;;4995668;28;20244;-83
2022/12/10 01:20:46;;;;;;;61.25;26.73;;;2.30;99.90;;;;;;4995820;28;20204;-80
2022/12/10 01:23:12;;;;;;;84.13;31.75;;;2.60;99.90;;;;;;4995701;28;20165;-78
2022/12/10 01:25:37;;;;;;;76.35;31.90;;;2.90;99.90;;;;;;4994620;28;20316;-80
2022/12/10 01:28:03;;;;;;;81.10;34.70;;;2.60;99.90;;;;;;4995557;28;20505;-85
2022/12/10 01:30:29;;;;;;;81.45;35.75;;;2.50;99.90;;;;;;4995584;28;20657;-78
2022/12/10 01:32:54;;;;;;;105.18;41.03;;;2.40;99.90;;;;;;4995734;28;20244;-78
2022/12/10 01:35:20;;;;;;;105.45;42.63;;;2.30;99.90;;;;;;4995663;28;20173;-85
2022/12/10 01:37:45;;;;;;;88.65;38.40;;;2.00;99.90;;;;;;4995561;28;20213;-79
2022/12/10 01:40:11;;;;;;;79.15;33.85;;;2.10;99.90;;;;;;4994594;28;20162;-78
2022/12/10 01:42:37;;;;;;;86.43;34.97;;;2.20;99.90;;;;;;4995348;28;20268;-79
2022/12/10 01:45:06;;;;;;;74.50;32.95;;;2.30;99.90;;;;;;4995424;28;20213;-78
2022/12/10 01:47:32;;;;;;;87.55;31.35;;;2.40;99.90;;;;;;4995148;28;20179;-79
2022/12/10 01:49:59;;;;;;;74.60;28.60;;;2.50;99.90;;;;;;4994960;28;20193;-82
2022/12/10 01:52:24;;;;;;;57.15;23.58;;;2.60;99.90;;;;;;4993912;28;20189;-85
2022/12/10 01:54:50;;;;;;;67.05;26.30;;;2.40;99.90;;;;;;4994005;28;20176;-85
2022/12/10 01:57:21;;;;;;;79.63;28.83;;;2.40;99.90;;;;;;4994131;28;20228;-84
2022/12/10 01:59:50;;;;;;;71.82;27.45;;;2.30;99.90;;;;;;4995495;28;20545;-81
2022/12/10 02:02:34;;;;;;;54.83;26.15;;;2.20;99.90;;;;;;4993453;28;20201;-79
2022/12/10 02:05:34;;;;;;;54.70;24.75;;;2.30;99.90;;;;;;4994836;28;20661;-80
2022/12/10 02:08:03;;;;;;;63.90;27.98;;;2.40;99.90;;;;;;4994448;28;20172;-78
2022/12/10 02:10:28;;;;;;;58.97;25.85;;;2.30;99.90;;;;;;4994909;28;20658;-78
2022/12/10 02:13:03;;;;;;;53.75;24.48;;;2.30;99.90;;;;;;4994947;28;20256;-79
2022/12/10 02:15:34;;;;;;;56.40;25.55;;;2.00;99.90;;;;;;4993843;28;20664;-78
2022/12/10 02:18:08;;;;;;;62.65;26.45;;;1.80;99.90;;;;;;4994733;28;20184;-78
2022/12/10 02:20:47;;;;;;;65.32;27.50;;;2.00;99.90;;;;;;4994714;28;20181;-78
2022/12/10 02:23:24;;;;;;;68.65;27.05;;;2.10;99.90;;;;;;4994792;28;20172;-78
2022/12/10 02:26:29;;;;;;;66.55;27.05;;;2.20;99.90;;;;;;4994466;28;20208;-79
2022/12/10 02:29:15;;;;;;;70.72;29.17;;;2.20;99.90;;;;;;4994259;28;20208;-79
2022/12/10 02:31:46;;;;;;;68.68;30.20;;;2.10;99.90;;;;;;4994323;28;20262;-81
2022/12/10 02:34:13;;;;;;;67.25;26.80;;;2.10;99.90;;;;;;4994661;28;20269;-78
2022/12/10 02:36:43;;;;;;;63.45;25.42;;;2.10;99.90;;;;;;4994064;28;20169;-78
2022/12/10 02:39:12;;;;;;;54.80;26.55;;;2.00;99.90;;;;;;4994250;28;20579;-78
2022/12/10 02:41:46;;;;;;;64.32;25.42;;;2.00;99.90;;;;;;4994277;28;20204;-82
2022/12/10 02:44:15;;;;;;;67.88;25.75;;;2.10;99.90;;;;;;4993007;28;20169;-79
2022/12/10 02:46:44;;;;;;;60.17;27.15;;;2.00;99.90;;;;;;4992941;28;20209;-83
2022/12/10 02:49:13;;;;;;;63.92;27.25;;;2.00;99.90;;;;;;4993120;28;20165;-85
2022/12/10 02:51:39;;;;;;;63.60;25.25;;;2.10;99.90;;;;;;4993437;28;20243;-78
2022/12/10 02:54:27;;;;;;;64.78;26.50;;;2.00;99.90;;;;;;4994089;28;20197;-80
2022/12/10 02:57:00;;;;;;;63.97;26.60;;;1.80;99.90;;;;;;4994125;28;20219;-80
2022/12/10 02:59:29;;;;;;;66.63;27.05;;;1.90;99.90;;;;;;4992706;28;20603;-79
2022/12/10 03:02:05;;;;;;;72.38;29.58;;;2.10;99.90;;;;;;4992720;28;20196;-78
2022/12/10 03:04:53;;;;;;;68.18;28.80;;;2.00;99.90;;;;;;4993837;28;20177;-79
2022/12/10 03:07:39;;;;;;;67.97;30.10;;;2.30;99.90;;;;;;4993694;28;20188;-79
2022/12/10 03:10:35;;;;;;;73.97;29.60;;;2.10;99.90;;;;;;4992528;28;20197;-78
2022/12/10 03:13:05;;;;;;;67.32;27.80;;;1.80;99.90;;;;;;4993674;28;20211;-80
2022/12/10 03:15:34;;;;;;;73.05;29.77;;;1.90;99.90;;;;;;4993476;28;20625;-84
2022/12/10 03:18:03;;;;;;;71.90;28.80;;;1.90;99.90;;;;;;4992412;28;20184;-78
2022/12/10 03:20:32;;;;;;;74.55;29.88;;;2.00;99.90;;;;;;4992809;28;20829;-82
2022/12/10 03:22:59;;;;;;;65.32;26.42;;;2.00;99.90;;;;;;4993552;28;20638;-85
2022/12/10 03:25:28;;;;;;;76.03;29.48;;;1.90;99.90;;;;;;4993515;28;20674;-78
2022/12/10 03:27:56;;;;;;;64.88;26.67;;;2.10;99.90;;;;;;4993711;28;20165;-81
2022/12/10 03:30:23;;;;;;;67.18;24.77;;;2.00;99.90;;;;;;4993208;28;20173;-80
2022/12/10 03:32:50;;;;;;;71.25;27.27;;;1.90;99.90;;;;;;4992318;28;20228;-78
2022/12/10 03:35:17;;;;;;;71.63;27.52;;;1.90;99.90;;;;;;4993533;28;20197;-79
2022/12/10 03:37:43;;;;;;;81.35;29.75;;;1.70;99.90;;;;;;4993262;28;20177;-79
2022/12/10 03:40:10;;;;;;;77.95;29.10;;;1.80;99.90;;;;;;4993254;28;20187;-78
2022/12/10 03:42:37;;;;;;;87.72;30.10;;;1.70;99.90;;;;;;4991972;28;20195;-78
2022/12/10 03:45:04;;;;;;;84.22;29.55;;;1.50;99.90;;;;;;4993061;28;20204;-78
2022/12/10 03:47:30;;;;;;;80.57;29.80;;;1.70;99.90;;;;;;4993322;28;20560;-78
2022/12/10 03:49:55;;;;;;;84.47;28.95;;;1.80;99.90;;;;;;4993190;28;20249;-80
2022/12/10 03:52:21;;;;;;;81.88;30.83;;;1.70;99.90;;;;;;4992921;28;20204;-78
2022/12/10 03:54:46;;;;;;;79.88;30.45;;;1.70;99.90;;;;;;4993589;28;20173;-80
2022/12/10 03:57:12;;;;;;;82.70;29.63;;;1.90;99.90;;;;;;4993191;28;20176;-80
2022/12/10 03:59:38;;;;;;;74.18;26.42;;;2.10;99.90;;;;;;4992919;28;20177;-81
2022/12/10 04:02:03;;;;;;;68.38;26.55;;;2.10;99.90;;;;;;4991817;28;20227;-81
2022/12/10 04:04:29;;;;;;;78.85;28.17;;;1.90;99.90;;;;;;4994233;28;20184;-80
2022/12/10 04:06:55;;;;;;;65.95;25.55;;;1.60;99.90;;;;;;4997210;28;20252;-79
2022/12/10 04:09:21;;;;;;;71.50;27.33;;;1.40;99.90;;;;;;4996555;28;20735;-80
2022/12/10 04:11:46;;;;;;;86.93;28.08;;;1.30;99.90;;;;;;4995892;28;20522;-80
2022/12/10 04:16:58;;;;;;;72.65;27.75;;;1.50;99.90;;;;;;4996618;28;20207;-80
2022/12/10 04:19:24;;;;;;;77.40;26.85;;;1.60;99.90;;;;;;4995148;28;20200;-79
2022/12/10 04:27:39;;;;;;;71.80;25.83;;;1.70;99.90;;;;;;4993939;28;20181;-79
2022/12/10 04:30:08;;;;;;;71.70;26.52;;;1.70;99.90;;;;;;4994106;28;20267;-80
2022/12/10 04:32:34;;;;;;;67.68;25.90;;;1.80;99.90;;;;;;4994992;28;20225;-79
2022/12/10 04:34:59;;;;;;;69.63;24.25;;;1.60;99.90;;;;;;4996813;28;20177;-79
2022/12/10 04:37:26;;;;;;;77.00;25.13;;;1.50;99.90;;;;;;4996660;28;20227;-79
2022/12/10 04:39:52;;;;;;;76.25;26.67;;;1.60;99.90;;;;;;4996651;28;20219;-81
2022/12/10 04:42:18;;;;;;;80.57;28.48;;;1.80;99.90;;;;;;4996350;28;20621;-82
2022/12/10 04:44:44;;;;;;;73.65;26.42;;;1.70;99.90;;;;;;4996430;28;20240;-79
2022/12/10 04:47:11;;;;;;;83.88;27.83;;;1.60;99.90;;;;;;4996378;28;20201;-79
2022/12/10 04:49:37;;;;;;;82.57;29.52;;;1.70;99.90;;;;;;4996493;28;20640;-79
2022/12/10 04:52:04;;;;;;;82.70;28.05;;;1.60;99.90;;;;;;4994977;28;20568;-84
2022/12/10 04:54:30;;;;;;;82.18;28.63;;;1.70;99.90;;;;;;4996286;28;20178;-79
2022/12/10 04:56:55;;;;;;;76.63;28.75;;;1.60;99.90;;;;;;4996592;28;20161;-78
2022/12/10 04:59:21;;;;;;;95.18;30.30;;;1.40;99.90;;;;;;4996248;28;20685;-79
2022/12/10 05:01:47;;;;;;;73.63;26.58;;;1.50;99.90;;;;;;4996240;28;20251;-78
2022/12/10 05:04:16;;;;;;;73.13;26.17;;;1.80;99.90;;;;;;4996322;28;20161;-79
2022/12/10 05:06:42;;;;;;;83.60;28.85;;;1.80;99.90;;;;;;4996064;28;20208;-78
2022/12/10 05:09:09;;;;;;;72.97;25.38;;;1.70;99.90;;;;;;4996156;28;20173;-78
2022/12/10 05:11:35;;;;;;;79.10;28.33;;;1.60;99.90;;;;;;4995909;28;20289;-81
2022/12/10 05:14:01;;;;;;;81.85;26.80;;;1.80;99.90;;;;;;4996027;28;20161;-81
2022/12/10 05:16:28;;;;;;;71.32;27.42;;;1.70;99.90;;;;;;4995155;28;20187;-80
2022/12/10 05:18:56;;;;;;;88.35;27.60;;;1.80;99.90;;;;;;4996123;28;20180;-80
2022/12/10 05:21:23;;;;;;;82.05;27.45;;;1.80;99.90;;;;;;4995362;28;20181;-79
2022/12/10 05:23:50;;;;;;;75.38;26.98;;;1.70;99.90;;;;;;4995294;28;20169;-79
2022/12/10 05:26:22;;;;;;;70.35;25.75;;;1.70;99.90;;;;;;4995597;28;20217;-80
2022/12/10 05:28:55;;;;;;;81.57;26.35;;;1.90;99.90;;;;;;4995418;28;20248;-78
2022/12/10 05:31:23;;;;;;;78.55;26.30;;;1.80;99.90;;;;;;4995452;28;20207;-79
2022/12/10 05:33:49;;;;;;;87.32;27.52;;;1.70;99.90;;;;;;4995509;28;20232;-79
2022/12/10 05:36:17;;;;;;;90.07;29.20;;;1.70;99.90;;;;;;4995242;28;20169;-80
2022/12/10 05:38:44;;;;;;;76.75;27.08;;;1.70;99.90;;;;;;4995603;28;20192;-78
2022/12/10 05:41:17;;;;;;;76.95;26.42;;;1.90;99.90;;;;;;4995360;28;20196;-78
2022/12/10 05:43:44;;;;;;;78.38;27.38;;;1.90;99.90;;;;;;4995969;28;20173;-81
2022/12/10 05:46:12;;;;;;;79.38;27.35;;;1.90;99.90;;;;;;4995483;28;20640;-85
2022/12/10 05:48:38;;;;;;;76.20;26.25;;;1.90;99.90;;;;;;4995874;28;20967;-83
2022/12/10 05:51:05;;;;;;;71.85;26.85;;;1.80;99.90;;;;;;4995112;28;20235;-82
2022/12/10 05:53:31;;;;;;;81.57;26.35;;;1.80;99.90;;;;;;4994895;28;20193;-81
2022/12/10 05:56:02;;;;;;;75.13;27.77;;;1.90;99.90;;;;;;4995128;28;20197;-78
2022/12/10 05:58:29;;;;;;;75.82;27.63;;;1.80;99.90;;;;;;4995270;28;20530;-78
2022/12/10 06:00:55;;;;;;;75.90;24.27;;;1.90;99.90;;;;;;4995072;28;20271;-78
2022/12/10 06:03:21;;;;;;;74.45;26.02;;;1.80;99.90;;;;;;4993648;28;20174;-79
2022/12/10 06:05:47;;;;;;;68.53;26.08;;;1.70;99.90;;;;;;4995054;28;20209;-79
2022/12/10 06:08:12;;;;;;;72.25;27.00;;;1.70;99.90;;;;;;4994785;28;20162;-79
2022/12/10 06:10:38;;;;;;;70.05;26.40;;;1.60;99.90;;;;;;4994609;28;20662;-81
2022/12/10 06:13:05;;;;;;;74.70;25.30;;;1.60;99.90;;;;;;4998893;28;20173;-80
2022/12/10 06:15:32;;;;;;;80.22;24.70;;;1.80;99.90;;;;;;4997533;28;20264;-78
2022/12/10 06:17:58;;;;;;;79.25;26.88;;;1.70;99.90;;;;;;4995074;28;20845;-78
2022/12/10 06:20:25;;;;;;;92.72;26.05;;;1.70;99.90;;;;;;4994452;28;20577;-79
2022/12/10 06:22:51;;;;;;;67.60;25.92;;;1.60;99.90;;;;;;4995294;28;20166;-78
2022/12/10 06:25:18;;;;;;;109.80;25.65;;;1.30;99.90;;;;;;4994986;28;20224;-79
2022/12/10 06:27:44;;;;;;;83.15;26.13;;;1.30;99.90;;;;;;4994795;28;20693;-79
2022/12/10 06:30:10;;;;;;;85.50;24.52;;;1.50;99.90;;;;;;4994691;28;20626;-78
2022/12/10 06:32:35;;;;;;;81.88;25.30;;;1.50;99.90;;;;;;4994400;28;20236;-79
2022/12/10 06:35:02;;;;;;;70.88;24.13;;;1.50;99.90;;;;;;4994940;28;20192;-79
2022/12/10 06:37:27;;;;;;;86.28;24.10;;;1.60;99.90;;;;;;4993234;28;20200;-86
2022/12/10 06:39:53;;;;;;;78.80;26.10;;;1.30;99.90;;;;;;4995164;28;20567;-83
2022/12/10 06:42:21;;;;;;;72.65;23.10;;;1.10;99.90;;;;;;4994028;28;20684;-81
2022/12/10 06:44:47;;;;;;;85.20;27.83;;;1.30;99.90;;;;;;4994846;28;20646;-79
2022/12/10 06:47:13;;;;;;;76.00;25.98;;;1.50;99.90;;;;;;4993247;28;20183;-78
2022/12/10 06:49:39;;;;;;;69.20;24.15;;;1.70;99.90;;;;;;4994787;28;20181;-80
2022/12/10 06:52:05;;;;;;;65.15;23.48;;;1.70;99.90;;;;;;4993816;28;20255;-78
2022/12/10 06:54:30;;;;;;;76.60;24.88;;;1.80;99.90;;;;;;4992426;28;20173;-78
2022/12/10 06:56:56;;;;;;;80.50;26.35;;;1.80;99.90;;;;;;4992919;28;20259;-78
2022/12/10 06:59:22;;;;;;;71.72;23.77;;;1.70;99.90;;;;;;4993993;28;20169;-82
2022/12/10 07:01:48;;;;;;;68.32;22.33;;;1.70;99.90;;;;;;4992976;28;20848;-78
2022/12/10 07:04:14;;;;;;;81.10;25.47;;;1.50;99.90;;;;;;4995993;28;21005;-85
2022/12/10 07:06:40;;;;;;;84.40;25.88;;;1.30;99.90;;;;;;5013478;28;20211;-78
2022/12/10 07:09:05;;;;;;;75.03;23.33;;;1.40;99.90;;;;;;5013226;28;20518;-79
2022/12/10 07:11:31;;;;;;;85.68;24.75;;;1.20;99.90;;;;;;5013675;28;20675;-78
2022/12/10 07:13:58;;;;;;;98.18;25.35;;;1.20;99.90;;;;;;5013600;28;20259;-84
2022/12/10 07:16:32;;;;;;;75.20;24.65;;;1.30;99.90;;;;;;5012788;28;20184;-78
2022/12/10 07:19:00;;;;;;;79.22;25.55;;;1.20;99.90;;;;;;5013004;28;20178;-81
2022/12/10 07:21:34;;;;;;;68.82;23.35;;;1.30;99.90;;;;;;5012569;28;20189;-85
2022/12/10 07:24:05;;;;;;;74.75;25.33;;;1.50;99.90;;;;;;5013095;28;20164;-79
2022/12/10 07:26:34;;;;;;;81.90;25.88;;;1.50;99.90;;;;;;5013141;28;20309;-86
2022/12/10 07:29:01;;;;;;;71.20;24.30;;;1.40;99.90;;;;;;5013446;28;20523;-85
2022/12/10 07:31:27;;;;;;;80.60;25.67;;;1.10;99.90;;;;;;5012746;28;20791;-81
2022/12/10 07:33:54;;;;;;;76.57;24.27;;;1.20;99.90;;;;;;5013473;28;20188;-82
2022/12/10 07:36:22;;;;;;;67.63;25.60;;;1.20;99.90;;;;;;5012237;28;20183;-80
2022/12/10 07:38:48;;;;;;;93.07;29.38;;;1.20;99.90;;;;;;5012796;28;20695;-78
2022/12/10 07:41:15;;;;;;;80.97;25.40;;;1.40;99.90;;;;;;5011798;28;20196;-79
2022/12/10 07:43:45;;;;;;;77.32;26.20;;;1.50;99.90;;;;;;5013306;28;20638;-83
2022/12/10 07:46:17;;;;;;;77.68;23.73;;;1.60;99.90;;;;;;5014161;28;20780;-85
2022/12/10 07:48:44;;;;;;;59.88;23.27;;;1.60;99.90;;;;;;5013023;28;20247;-79
2022/12/10 07:51:10;;;;;;;78.57;23.40;;;1.50;99.90;;;;;;5008924;28;20929;-80
2022/12/10 07:53:36;;;;;;;69.70;24.47;;;1.50;99.90;;;;;;5002066;28;20169;-84
2022/12/10 07:56:03;;;;;;;84.77;24.50;;;1.40;99.90;;;;;;4992057;28;20172;-85
2022/12/10 07:58:29;;;;;;;105.57;25.92;;;1.50;99.90;;;;;;4999259;28;20180;-84
2022/12/10 08:00:55;;;;;;;74.80;25.27;;;1.50;99.90;;;;;;5011489;28;20205;-79
2022/12/10 08:03:20;;;;;;;87.57;26.83;;;1.40;99.90;;;;;;4992875;28;20299;-80
2022/12/10 08:05:46;;;;;;;83.90;26.10;;;1.50;99.90;;;;;;4992587;28;20211;-79
2022/12/10 08:08:12;;;;;;;81.53;26.63;;;1.50;99.90;;;;;;4993100;28;20256;-85
2022/12/10 08:10:38;;;;;;;83.35;23.75;;;1.70;99.90;;;;;;4991533;28;20243;-81
2022/12/10 08:13:05;;;;;;;93.93;25.70;;;1.70;99.90;;;;;;4993083;28;20169;-82
2022/12/10 08:15:31;;;;;;;76.20;25.25;;;1.90;99.90;;;;;;4991230;28;20227;-84
2022/12/10 08:17:57;;;;;;;64.85;22.73;;;1.80;99.90;;;;;;4992504;28;20177;-86
2022/12/10 08:20:24;;;;;;;81.63;25.05;;;1.70;99.90;;;;;;4992925;28;20252;-86
2022/12/10 08:22:50;;;;;;;71.23;24.70;;;1.60;99.90;;;;;;4993104;28;20642;-79
2022/12/10 08:25:16;;;;;;;75.50;24.27;;;1.70;99.90;;;;;;4992991;28;20197;-79
2022/12/10 08:27:42;;;;;;;75.90;25.27;;;1.70;99.90;;;;;;4992929;28;20174;-85
2022/12/10 08:30:08;;;;;;;74.30;23.97;;;1.60;99.90;;;;;;4993232;28;20215;-83
2022/12/10 08:32:34;;;;;;;73.90;23.23;;;1.50;99.90;;;;;;4993093;28;20228;-86
2022/12/10 08:34:59;;;;;;;70.05;23.67;;;1.40;99.90;;;;;;4991860;28;20188;-79
2022/12/10 08:37:25;;;;;;;69.72;22.83;;;1.50;99.90;;;;;;4992897;28;20174;-79
2022/12/10 08:39:51;;;;;;;79.20;23.77;;;1.50;99.90;;;;;;4992681;28;20636;-85
2022/12/10 08:42:16;;;;;;;83.38;23.40;;;1.50;99.90;;;;;;4993063;28;20185;-84
2022/12/10 08:44:42;;;;;;;76.13;23.60;;;1.80;99.90;;;;;;4992846;28;20195;-78
2022/12/10 08:47:07;;;;;;;66.05;24.30;;;1.90;99.90;;;;;;4992809;28;20170;-83
2022/12/10 08:49:33;;;;;;;69.53;23.90;;;1.80;99.90;;;;;;4992629;28;20166;-84
2022/12/10 08:51:59;;;;;;;95.45;24.77;;;1.60;99.90;;;;;;4996145;28;20189;-87
2022/12/10 08:54:24;;;;;;;71.50;21.80;;;1.70;99.90;;;;;;4996572;28;20220;-84
2022/12/10 08:56:50;;;;;;;82.55;24.80;;;2.10;99.90;;;;;;4996438;28;20227;-78
2022/12/10 08:59:16;;;;;;;74.95;23.38;;;2.00;99.90;;;;;;4996241;28;20215;-84
2022/12/10 09:01:42;;;;;;;77.57;22.93;;;1.80;99.90;;;;;;4995893;28;20197;-80
2022/12/10 09:04:07;;;;;;;66.50;22.55;;;1.90;99.90;;;;;;4996000;28;20187;-83
2022/12/10 09:06:33;;;;;;;75.33;22.40;;;1.90;99.90;;;;;;4996150;28;20213;-80
2022/12/10 09:08:59;;;;;;;82.30;22.13;;;1.60;99.90;;;;;;4996280;28;20588;-78
2022/12/10 09:11:34;;;;;;;78.45;23.55;;;1.70;99.90;;;;;;4994644;28;20296;-77
2022/12/10 09:14:00;;;;;;;61.03;21.17;;;1.70;99.90;;;;;;4995857;28;20184;-78
2022/12/10 09:16:44;;;;;;;71.13;22.77;;;1.70;99.90;;;;;;4996451;28;20193;-79
2022/12/10 09:19:09;;;;;;;62.90;23.33;;;2.00;99.90;;;;;;4995667;28;20231;-79
2022/12/10 09:21:36;;;;;;;61.20;21.20;;;2.40;99.90;;;;;;4995861;28;20201;-79
2022/12/10 09:24:01;;;;;;;64.78;22.48;;;2.20;99.90;;;;;;4994473;28;20169;-80
2022/12/10 09:26:27;;;;;;;69.70;22.60;;;1.80;99.90;;;;;;4995806;28;20602;-79
2022/12/10 09:28:54;;;;;;;50.90;20.40;;;1.60;99.90;;;;;;4996204;28;20181;-78
2022/12/10 09:31:20;;;;;;;53.72;18.83;;;1.80;99.90;;;;;;4995715;28;20215;-81
2022/12/10 09:33:48;;;;;;;60.78;19.67;;;1.90;99.90;;;;;;4995608;28;20521;-81
2022/12/10 09:36:14;;;;;;;62.10;19.85;;;2.10;99.90;;;;;;4994447;28;20507;-81
2022/12/10 09:38:43;;;;;;;73.95;20.08;;;2.20;99.90;;;;;;4995512;28;20176;-79
2022/12/10 09:41:36;;;;;;;64.65;21.08;;;2.20;99.90;;;;;;4995419;28;20231;-77
2022/12/10 09:44:18;;;;;;;61.53;20.23;;;2.30;99.90;;;;;;4995625;28;20161;-86
2022/12/10 09:46:46;;;;;;;55.53;19.98;;;2.20;99.90;;;;;;4995751;28;20212;-79
2022/12/10 09:49:38;;;;;;;62.05;21.58;;;2.10;99.90;;;;;;4995370;28;20193;-78
2022/12/10 09:52:10;;;;;;;66.85;22.40;;;2.10;99.90;;;;;;4994939;28;20192;-82
2022/12/10 09:54:58;;;;;;;69.35;22.10;;;2.00;99.90;;;;;;4995449;28;20626;-79
2022/12/10 09:57:41;;;;;;;72.40;20.42;;;2.00;99.90;;;;;;4995395;28;20187;-78
2022/12/10 10:00:28;;;;;;;59.45;22.05;;;2.20;99.90;;;;;;4995355;28;20169;-81
2022/12/10 10:03:00;;;;;;;65.35;20.55;;;2.20;99.90;;;;;;4995079;28;20169;-85
2022/12/10 10:05:39;;;;;;;66.15;23.67;;;2.30;99.90;;;;;;4995194;28;20196;-80
2022/12/10 10:08:15;;;;;;;74.70;23.63;;;2.40;99.90;;;;;;4994788;28;20252;-82
2022/12/10 10:10:41;;;;;;;64.85;21.50;;;2.60;99.90;;;;;;4994691;28;20212;-79
2022/12/10 10:13:07;;;;;;;64.72;22.95;;;2.50;99.90;;;;;;4994961;28;20512;-79
2022/12/10 10:15:35;;;;;;;61.45;22.85;;;2.50;99.90;;;;;;4995383;28;20184;-80
2022/12/10 10:18:36;;;;;;;74.25;24.85;;;2.60;99.90;;;;;;4995151;28;20256;-79
2022/12/10 10:21:03;;;;;;;71.63;23.13;;;2.80;99.90;;;;;;4994928;28;20224;-79
2022/12/10 10:23:29;;;;;;;67.57;22.23;;;2.80;99.90;;;;;;4995277;28;20223;-83
2022/12/10 10:25:54;;;;;;;61.17;20.95;;;2.70;99.90;;;;;;4995022;28;20208;-84
2022/12/10 10:28:22;;;;;;;65.00;23.15;;;2.70;99.90;;;;;;4995092;28;20231;-79
2022/12/10 10:30:50;;;;;;;69.38;22.90;;;2.80;99.90;;;;;;4994855;28;20235;-79
2022/12/10 10:33:15;;;;;;;68.75;24.50;;;3.10;99.90;;;;;;4994517;28;20170;-80
2022/12/10 10:35:56;;;;;;;69.05;24.35;;;3.10;99.90;;;;;;4994474;28;20173;-78
2022/12/10 10:38:25;;;;;;;59.50;21.98;;;3.40;99.90;;;;;;4994585;28;20180;-82
2022/12/10 10:40:57;;;;;;;62.95;24.27;;;3.30;99.90;;;;;;4994470;28;20524;-82
2022/12/10 10:43:27;;;;;;;66.22;23.23;;;3.10;99.90;;;;;;4994601;28;20640;-80
2022/12/10 10:46:06;;;;;;;69.78;23.33;;;3.10;99.90;;;;;;4994408;28;20220;-79
2022/12/10 10:48:32;;;;;;;69.95;23.45;;;3.30;99.90;;;;;;4994304;28;20307;-78
2022/12/10 10:51:15;;;;;;;73.22;23.73;;;3.70;99.90;;;;;;4993416;28;20600;-79
2022/12/10 10:53:43;;;;;;;55.72;20.70;;;3.50;99.90;;;;;;4993841;28;20165;-78
2022/12/10 10:56:11;;;;;;;69.30;20.85;;;2.90;99.90;;;;;;4993946;28;20173;-78
2022/12/10 10:58:54;;;;;;;62.03;21.80;;;3.00;99.90;;;;;;4993964;28;20157;-78
2022/12/10 11:01:20;;;;;;;72.43;23.65;;;3.00;99.90;;;;;;4993632;28;20178;-80
2022/12/10 11:03:54;;;;;;;58.13;20.98;;;3.30;99.90;;;;;;4993660;28;20243;-80
2022/12/10 11:06:21;;;;;;;54.17;19.88;;;3.00;99.90;;;;;;5008526;28;20295;-82
2022/12/10 11:08:48;;;;;;;61.28;22.15;;;2.60;99.90;;;;;;4993801;28;20172;-78
2022/12/10 11:11:35;;;;;;;67.38;22.27;;;2.40;99.90;;;;;;4993604;28;20201;-78
2022/12/10 11:14:41;;;;;;;94.00;22.67;;;2.80;99.90;;;;;;4992921;28;20252;-79
2022/12/10 11:17:09;;;;;;;72.60;22.38;;;2.70;99.90;;;;;;4991410;28;20173;-79
2022/12/10 11:19:41;;;;;;;56.80;20.40;;;2.80;99.90;;;;;;4989814;28;20251;-80
2022/12/10 11:22:25;;;;;;;65.15;23.00;;;3.20;99.90;;;;;;4991815;28;20208;-79
2022/12/10 11:24:51;;;;;;;63.15;22.65;;;3.00;99.90;;;;;;4994173;28;20259;-80
2022/12/10 11:27:43;;;;;;;67.03;20.52;;;3.10;99.90;;;;;;4992228;28;20295;-79
2022/12/10 11:30:19;;;;;;;48.17;19.08;;;3.00;99.90;;;;;;4993233;28;20177;-80
2022/12/10 11:32:56;;;;;;;57.35;21.00;;;3.10;99.90;;;;;;4993151;28;20515;-79
2022/12/10 11:35:53;;;;;;;59.55;19.52;;;3.40;99.90;;;;;;4993088;28;20649;-78
2022/12/10 11:39:03;;;;;;;60.88;18.83;;;3.70;99.90;;;;;;4993051;28;20176;-78
2022/12/10 11:41:45;;;;;;;54.13;19.52;;;3.40;99.90;;;;;;4990840;28;20586;-79
2022/12/10 11:44:22;;;;;;;60.55;20.48;;;3.40;99.90;;;;;;4993950;28;20227;-79
2022/12/10 11:47:03;;;;;;;57.30;19.70;;;3.50;99.90;;;;;;4991879;28;20614;-79
2022/12/10 11:49:42;;;;;;;62.10;21.48;;;3.70;99.90;;;;;;4993167;28;20181;-79
2022/12/10 11:52:40;;;;;;;52.88;19.52;;;3.60;99.90;;;;;;4993170;28;20673;-78
2022/12/10 11:55:43;;;;;;;56.83;20.42;;;3.40;99.90;;;;;;4993110;28;20504;-78
2022/12/10 11:58:31;;;;;;;56.17;21.63;;;3.50;99.90;;;;;;4991849;28;20223;-79
2022/12/10 12:01:12;;;;;;;59.10;22.27;;;3.50;99.90;;;;;;4992969;28;20646;-79
2022/12/10 12:03:41;;;;;;;69.63;22.90;;;3.20;99.90;;;;;;5007599;28;20212;-78
2022/12/10 12:06:28;;;;;;;57.92;21.25;;;3.30;99.90;;;;;;4992819;28;20204;-80
2022/12/10 12:09:22;;;;;;;61.17;20.52;;;3.70;99.90;;;;;;4992025;28;20556;-82
2022/12/10 12:11:56;;;;;;;53.92;20.20;;;3.90;99.90;;;;;;4992709;28;20181;-79
2022/12/10 12:14:27;;;;;;;54.03;19.27;;;4.00;99.90;;;;;;4991834;28;20545;-80
2022/12/10 12:17:24;;;;;;;60.13;21.52;;;3.90;99.90;;;;;;4993398;28;20173;-82
2022/12/10 12:19:57;;;;;;;49.45;18.63;;;3.60;99.90;;;;;;4993438;28;20185;-79
2022/12/10 12:22:30;;;;;;;52.15;18.83;;;3.40;99.90;;;;;;4992847;28;20237;-79
2022/12/10 12:25:16;;;;;;;52.88;18.95;;;3.50;99.90;;;;;;4994907;28;20630;-82
2022/12/10 12:27:48;;;;;;;51.10;18.15;;;3.60;99.90;;;;;;4997500;28;20200;-81
2022/12/10 12:30:18;;;;;;;71.50;18.77;;;3.60;99.90;;;;;;4998154;28;20669;-78
2022/12/10 12:33:10;;;;;;;58.00;17.45;;;3.20;99.90;;;;;;5001278;28;20200;-78
2022/12/10 12:35:50;;;;;;;68.53;20.00;;;3.10;99.90;;;;;;5002167;28;20165;-80
2022/12/10 12:38:39;;;;;;;51.58;19.27;;;3.00;99.90;;;;;;5000867;28;20161;-78
2022/12/10 12:41:10;;;;;;;50.75;17.58;;;3.10;99.90;;;;;;4996945;28;20251;-78
2022/12/10 12:43:35;;;;;;;45.83;17.45;;;3.20;99.90;;;;;;4996300;28;20191;-78
2022/12/10 12:46:10;;;;;;;49.42;18.83;;;3.50;99.90;;;;;;4998182;28;20297;-78
2022/12/10 12:48:48;;;;;;;54.20;18.02;;;3.50;99.90;;;;;;4997514;28;20177;-76
2022/12/10 12:51:32;;;;;;;51.28;20.10;;;3.40;99.90;;;;;;4996493;28;20283;-82
2022/12/10 12:53:57;;;;;;;43.35;19.52;;;3.30;99.90;;;;;;4996186;28;20328;-81
2022/12/10 12:57:11;;;;;;;53.05;18.05;;;3.50;99.90;;;;;;4996673;28;20200;-85
2022/12/10 13:00:02;;;;;;;46.35;17.55;;;3.40;99.90;;;;;;4996486;28;20180;-78
2022/12/10 13:02:59;;;;;;;45.20;17.95;;;3.40;99.90;;;;;;5010830;28;20201;-79